Time;durP1;ratioP1;P1;durP2;ratioP2;P2;SDS_P1;SDS_P2;PMS_P1;PMS_P2;Temp;Humidity;BMP_temperature;BMP_pressure;BME280_temperature;BME280_humidity;BME280_pressure;Samples;Min_cycle;Max_cycle;Signal;HPM_P1;HPM_P2
2022/05/30 00:00:32;;;;;;;14.05;3.33;;;;;;;;;;4963690;28;20105;-74
2022/05/30 00:03:03;;;;;;;10.57;3.60;;;;;;;;;;4973507;28;20571;-72
2022/05/30 00:05:30;;;;;;;14.40;3.40;;;;;;;;;;4972850;28;20047;-72
2022/05/30 00:07:56;;;;;;;8.35;3.15;;;;;;;;;;4972046;28;20054;-72
2022/05/30 00:10:22;;;;;;;10.18;3.42;;;;;;;;;;4973390;28;20053;-70
2022/05/30 00:12:49;;;;;;;13.18;3.55;;;;;;;;;;4972981;28;20129;-71
2022/05/30 00:15:17;;;;;;;10.27;3.30;;;;;;;;;;4970231;28;20035;-71
2022/05/30 00:17:43;;;;;;;10.25;3.47;;;;;;;;;;4967509;28;20200;-70
2022/05/30 00:20:10;;;;;;;10.15;3.50;;;;;;;;;;4958857;28;20342;-70
2022/05/30 00:22:36;;;;;;;10.50;3.65;;;;;;;;;;4964629;28;20055;-69
2022/05/30 00:25:03;;;;;;;10.20;3.40;;;;;;;;;;4970269;28;20078;-69
2022/05/30 00:27:29;;;;;;;9.65;3.80;;;;;;;;;;4966033;28;20043;-69
2022/05/30 00:29:56;;;;;;;8.52;3.60;;;;;;;;;;4970400;28;20075;-70
2022/05/30 00:32:22;;;;;;;9.93;3.08;;;;;;;;;;4969617;28;20405;-71
2022/05/30 00:34:48;;;;;;;11.95;3.42;;;;;;;;;;4964360;28;20047;-70
2022/05/30 00:37:14;;;;;;;12.23;3.42;;;;;;;;;;4970876;28;20407;-70
2022/05/30 00:39:40;;;;;;;9.48;3.15;;;;;;;;;;4966126;28;20047;-71
2022/05/30 00:42:16;;;;;;;10.80;3.00;;;;;;;;;;4967641;28;20043;-71
2022/05/30 00:44:44;;;;;;;9.68;3.80;;;;;;;;;;4968530;28;20097;-70
2022/05/30 00:47:10;;;;;;;10.18;3.60;;;;;;;;;;4968949;28;20046;-70
2022/05/30 00:49:39;;;;;;;12.95;3.70;;;;;;;;;;4967679;28;20061;-73
2022/05/30 00:52:07;;;;;;;7.22;3.33;;;;;;;;;;4968442;28;20077;-72
2022/05/30 00:54:40;;;;;;;10.68;4.03;;;;;;;;;;4970666;28;20050;-70
2022/05/30 00:57:28;;;;;;;13.32;3.55;;;;;;;;;;4966266;28;20050;-68
2022/05/30 00:59:57;;;;;;;8.95;3.67;;;;;;;;;;4966346;28;20049;-69
2022/05/30 01:02:30;;;;;;;8.48;3.80;;;;;;;;;;4971137;28;20448;-71
2022/05/30 01:07:44;;;;;;;11.88;3.60;;;;;;;;;;4972566;28;20050;-70
2022/05/30 01:10:13;;;;;;;11.80;3.65;;;;;;;;;;4969592;28;20054;-70
2022/05/30 01:12:44;;;;;;;13.43;3.80;;;;;;;;;;4972894;28;20066;-69
2022/05/30 01:15:14;;;;;;;6.20;3.50;;;;;;;;;;4968212;28;20055;-69
2022/05/30 01:17:57;;;;;;;10.63;3.08;;;;;;;;;;4967643;28;20416;-68
2022/05/30 01:20:28;;;;;;;8.73;3.53;;;;;;;;;;4969228;28;20069;-68
2022/05/30 01:22:54;;;;;;;7.18;3.15;;;;;;;;;;4969125;28;20051;-68
2022/05/30 01:26:07;;;;;;;5.45;3.22;;;;;;;;;;4954817;28;20431;-69
2022/05/30 01:28:57;;;;;;;10.35;3.30;;;;;;;;;;4954755;28;20054;-69
2022/05/30 01:31:24;;;;;;;8.30;3.15;;;;;;;;;;4971206;28;20055;-72
2022/05/30 01:33:50;;;;;;;9.85;3.55;;;;;;;;;;4969566;28;20082;-69
2022/05/30 01:36:16;;;;;;;9.40;3.30;;;;;;;;;;4970052;28;20126;-68
2022/05/30 01:38:42;;;;;;;12.60;3.50;;;;;;;;;;4968122;28;20518;-69
2022/05/30 01:41:08;;;;;;;12.82;3.95;;;;;;;;;;4966919;28;20056;-69
2022/05/30 01:43:33;;;;;;;12.38;3.88;;;;;;;;;;4969490;28;20055;-69
2022/05/30 01:46:13;;;;;;;13.95;3.83;;;;;;;;;;4966615;28;20531;-69
2022/05/30 01:48:39;;;;;;;10.25;4.00;;;;;;;;;;4968764;28;20047;-69
2022/05/30 01:51:05;;;;;;;7.50;3.55;;;;;;;;;;4970088;28;20054;-69
2022/05/30 01:53:31;;;;;;;11.07;4.57;;;;;;;;;;4972751;28;20165;-70
2022/05/30 01:55:57;;;;;;;10.63;3.58;;;;;;;;;;4972449;28;20047;-69
2022/05/30 01:58:23;;;;;;;10.98;4.43;;;;;;;;;;4973107;28;20054;-70
2022/05/30 02:00:49;;;;;;;11.32;4.47;;;;;;;;;;4972863;28;20054;-68
2022/05/30 02:03:15;;;;;;;11.65;3.75;;;;;;;;;;4973445;28;20066;-69
2022/05/30 02:05:41;;;;;;;13.07;4.55;;;;;;;;;;4971342;28;20412;-68
2022/05/30 02:08:08;;;;;;;11.07;3.85;;;;;;;;;;4970952;28;20054;-71
2022/05/30 02:10:35;;;;;;;13.48;3.92;;;;;;;;;;4972259;28;20077;-69
2022/05/30 02:13:02;;;;;;;9.18;3.70;;;;;;;;;;4970785;28;20094;-69
2022/05/30 02:15:28;;;;;;;9.68;3.45;;;;;;;;;;4972872;28;20070;-68
2022/05/30 02:17:54;;;;;;;9.55;3.80;;;;;;;;;;4969102;28;20055;-71
2022/05/30 02:20:21;;;;;;;11.57;3.70;;;;;;;;;;4971282;28;20047;-71
2022/05/30 02:22:46;;;;;;;13.85;3.20;;;;;;;;;;4965210;28;20073;-69
2022/05/30 02:25:13;;;;;;;14.82;3.92;;;;;;;;;;4964366;28;20043;-74
2022/05/30 02:27:41;;;;;;;13.82;3.63;;;;;;;;;;4973120;28;20050;-71
2022/05/30 02:30:09;;;;;;;8.30;3.40;;;;;;;;;;4968212;28;20050;-70
2022/05/30 02:32:35;;;;;;;10.23;3.45;;;;;;;;;;4969741;28;20054;-69
2022/05/30 02:37:46;;;;;;;9.02;3.40;;;;;;;;;;4971317;28;20416;-68
2022/05/30 02:40:12;;;;;;;11.48;3.50;;;;;;;;;;4967223;28;20054;-69
2022/05/30 02:42:38;;;;;;;9.13;4.20;;;;;;;;;;4974528;28;20138;-67
2022/05/30 02:45:04;;;;;;;12.48;3.80;;;;;;;;;;4969241;28;20062;-69
2022/05/30 02:47:30;;;;;;;15.57;4.70;;;;;;;;;;4969738;28;20054;-69
2022/05/30 02:49:55;;;;;;;12.68;3.53;;;;;;;;;;4973835;28;20058;-70
2022/05/30 02:52:22;;;;;;;10.40;3.22;;;;;;;;;;4975347;28;20093;-69
2022/05/30 02:54:47;;;;;;;11.45;3.78;;;;;;;;;;4967872;28;20039;-69
2022/05/30 02:57:13;;;;;;;7.53;3.70;;;;;;;;;;4968008;28;20066;-69
2022/05/30 02:59:39;;;;;;;13.88;3.42;;;;;;;;;;4969891;28;20047;-70
2022/05/30 03:02:05;;;;;;;9.88;3.58;;;;;;;;;;4969615;28;20097;-69
2022/05/30 03:04:31;;;;;;;6.80;3.05;;;;;;;;;;4971081;28;20057;-67
2022/05/30 03:06:57;;;;;;;14.45;3.38;;;;;;;;;;4959391;28;20465;-69
2022/05/30 03:09:23;;;;;;;10.23;4.15;;;;;;;;;;4972273;28;20070;-70
2022/05/30 03:11:49;;;;;;;10.73;3.65;;;;;;;;;;4972773;28;20086;-68
2022/05/30 03:14:15;;;;;;;7.10;2.90;;;;;;;;;;4969018;28;20039;-69
2022/05/30 03:16:40;;;;;;;6.43;2.95;;;;;;;;;;4969244;28;20502;-69
2022/05/30 03:19:06;;;;;;;8.90;3.60;;;;;;;;;;4970779;28;20043;-68
2022/05/30 03:21:32;;;;;;;9.48;3.65;;;;;;;;;;4961656;28;20054;-71
2022/05/30 03:23:58;;;;;;;6.97;3.47;;;;;;;;;;4962960;28;20050;-68
2022/05/30 03:26:24;;;;;;;9.70;3.67;;;;;;;;;;4969183;28;20125;-70
2022/05/30 03:28:50;;;;;;;7.10;3.03;;;;;;;;;;4970054;28;20484;-69
2022/05/30 03:31:16;;;;;;;12.52;3.90;;;;;;;;;;4968039;28;20050;-72
2022/05/30 03:33:42;;;;;;;5.10;3.13;;;;;;;;;;4971012;28;20061;-68
2022/05/30 03:36:20;;;;;;;8.45;3.35;;;;;;;;;;4969871;28;20467;-69
2022/05/30 03:38:46;;;;;;;9.63;3.70;;;;;;;;;;4971774;28;20090;-70
2022/05/30 03:41:12;;;;;;;9.38;3.85;;;;;;;;;;4970260;28;20050;-69
2022/05/30 03:43:38;;;;;;;15.88;4.97;;;;;;;;;;4968099;28;20043;-70
2022/05/30 03:46:05;;;;;;;10.95;4.68;;;;;;;;;;4971599;28;20075;-69
2022/05/30 03:48:31;;;;;;;14.32;4.78;;;;;;;;;;4974983;28;20077;-67
2022/05/30 03:50:57;;;;;;;10.93;5.05;;;;;;;;;;4969550;28;20485;-70
2022/05/30 03:53:23;;;;;;;9.20;5.10;;;;;;;;;;4967217;28;20508;-69
2022/05/30 03:55:49;;;;;;;11.10;5.25;;;;;;;;;;4967454;28;20053;-68
2022/05/30 03:58:15;;;;;;;11.27;4.95;;;;;;;;;;4967210;28;20038;-68
2022/05/30 04:00:43;;;;;;;11.40;4.97;;;;;;;;;;4965813;28;20061;-68
2022/05/30 04:03:09;;;;;;;12.48;4.88;;;;;;;;;;4969513;28;20488;-67
2022/05/30 04:05:35;;;;;;;14.93;5.68;;;;;;;;;;4967530;28;20062;-70
2022/05/30 04:08:01;;;;;;;9.63;5.20;;;;;;;;;;4968851;28;20042;-68
2022/05/30 04:10:27;;;;;;;11.50;4.80;;;;;;;;;;4967385;28;20109;-68
2022/05/30 04:13:05;;;;;;;9.82;4.70;;;;;;;;;;4969628;28;20059;-70
2022/05/30 04:15:31;;;;;;;13.50;4.90;;;;;;;;;;4969007;28;20054;-70
2022/05/30 04:17:57;;;;;;;12.07;4.63;;;;;;;;;;4970617;28;20070;-69
2022/05/30 04:20:24;;;;;;;15.75;4.72;;;;;;;;;;4961402;28;20122;-70
2022/05/30 04:22:50;;;;;;;7.93;4.00;;;;;;;;;;4969055;28;20047;-68
2022/05/30 04:25:16;;;;;;;8.80;4.35;;;;;;;;;;4967754;28;20630;-70
2022/05/30 04:27:41;;;;;;;15.82;4.57;;;;;;;;;;4968108;28;20105;-69
2022/05/30 04:30:08;;;;;;;10.70;4.22;;;;;;;;;;4967983;28;20492;-69
2022/05/30 04:32:35;;;;;;;9.25;4.30;;;;;;;;;;4967336;28;20098;-68
2022/05/30 04:35:02;;;;;;;13.07;4.90;;;;;;;;;;4963783;28;20043;-71
2022/05/30 04:37:28;;;;;;;13.20;4.53;;;;;;;;;;4969809;28;20058;-68
2022/05/30 04:39:54;;;;;;;12.05;4.63;;;;;;;;;;4968295;28;20042;-67
2022/05/30 04:42:21;;;;;;;13.15;5.10;;;;;;;;;;4965531;28;20385;-68
2022/05/30 04:44:47;;;;;;;8.25;4.18;;;;;;;;;;4970950;28;20419;-70
2022/05/30 04:47:13;;;;;;;12.85;4.47;;;;;;;;;;4969832;28;21578;-68
2022/05/30 04:49:39;;;;;;;18.98;4.53;;;;;;;;;;4959318;28;20050;-69
2022/05/30 04:52:06;;;;;;;9.18;4.10;;;;;;;;;;4971020;28;20051;-71
2022/05/30 04:54:32;;;;;;;11.85;5.13;;;;;;;;;;4970921;28;20058;-68
2022/05/30 04:56:58;;;;;;;12.82;4.60;;;;;;;;;;4962558;28;20067;-69
2022/05/30 04:59:25;;;;;;;10.57;4.45;;;;;;;;;;4972306;28;20053;-70
2022/05/30 05:01:54;;;;;;;12.32;3.85;;;;;;;;;;4961960;28;20408;-67
2022/05/30 05:04:20;;;;;;;15.35;4.28;;;;;;;;;;4968299;28;20047;-70
2022/05/30 05:06:46;;;;;;;10.82;4.18;;;;;;;;;;4966561;28;20050;-68
2022/05/30 05:09:12;;;;;;;10.55;4.13;;;;;;;;;;4969752;28;20114;-72
2022/05/30 05:11:38;;;;;;;11.93;4.65;;;;;;;;;;4966038;28;20051;-69
2022/05/30 05:14:04;;;;;;;12.57;3.85;;;;;;;;;;4970947;28;20054;-69
2022/05/30 05:16:31;;;;;;;10.00;3.45;;;;;;;;;;4968988;28;20047;-71
2022/05/30 05:18:57;;;;;;;11.25;3.75;;;;;;;;;;4964004;28;20372;-71
2022/05/30 05:21:29;;;;;;;13.98;4.05;;;;;;;;;;4971180;28;20511;-71
2022/05/30 05:23:56;;;;;;;17.13;3.97;;;;;;;;;;4961157;28;20196;-68
2022/05/30 05:26:22;;;;;;;9.63;3.60;;;;;;;;;;4971604;28;21388;-72
2022/05/30 05:28:49;;;;;;;12.50;3.83;;;;;;;;;;4963119;28;20526;-70
2022/05/30 05:31:22;;;;;;;13.35;3.95;;;;;;;;;;4969957;28;20121;-71
2022/05/30 05:33:48;;;;;;;13.00;4.03;;;;;;;;;;4966379;28;20101;-70
2022/05/30 05:36:22;;;;;;;15.57;4.03;;;;;;;;;;4962871;28;20054;-70
2022/05/30 05:38:49;;;;;;;15.18;4.03;;;;;;;;;;4970658;28;20043;-71
2022/05/30 05:41:15;;;;;;;11.00;4.10;;;;;;;;;;4970401;28;20126;-68
2022/05/30 05:43:40;;;;;;;9.38;3.53;;;;;;;;;;4966055;28;20150;-68
2022/05/30 05:46:15;;;;;;;14.02;3.78;;;;;;;;;;4968444;28;20043;-71
2022/05/30 05:48:42;;;;;;;11.18;3.67;;;;;;;;;;4954638;28;20051;-68
2022/05/30 05:51:08;;;;;;;13.05;4.15;;;;;;;;;;4964641;28;20066;-69
2022/05/30 05:53:34;;;;;;;15.15;4.32;;;;;;;;;;4963431;28;20133;-68
2022/05/30 05:56:13;;;;;;;11.77;4.35;;;;;;;;;;4963239;28;20082;-69
2022/05/30 05:58:39;;;;;;;13.30;4.72;;;;;;;;;;4959106;28;20138;-73
2022/05/30 06:01:07;;;;;;;10.40;4.22;;;;;;;;;;4960251;28;20051;-71
2022/05/30 06:03:33;;;;;;;12.70;5.05;;;;;;;;;;4964030;28;20051;-71
2022/05/30 06:05:59;;;;;;;13.80;4.43;;;;;;;;;;4960781;28;20228;-69
2022/05/30 06:08:25;;;;;;;16.80;4.68;;;;;;;;;;4962535;28;20508;-73
2022/05/30 06:11:08;;;;;;;14.30;4.80;;;;;;;;;;4958454;28;20039;-68
2022/05/30 06:13:36;;;;;;;14.98;4.35;;;;;;;;;;4964616;28;20050;-71
2022/05/30 06:16:11;;;;;;;16.92;4.90;;;;;;;;;;4963704;28;20055;-71
2022/05/30 06:18:37;;;;;;;11.40;4.50;;;;;;;;;;4966841;28;20748;-73
2022/05/30 06:21:03;;;;;;;11.70;4.80;;;;;;;;;;4963269;28;20073;-74
2022/05/30 06:23:29;;;;;;;15.13;4.78;;;;;;;;;;4967484;28;20054;-71
2022/05/30 06:25:55;;;;;;;19.50;5.30;;;;;;;;;;4964296;28;20515;-70
2022/05/30 06:28:22;;;;;;;14.73;4.47;;;;;;;;;;4961476;28;20043;-71
2022/05/30 06:30:48;;;;;;;15.40;5.13;;;;;;;;;;4964355;28;20042;-70
2022/05/30 06:33:14;;;;;;;12.88;4.47;;;;;;;;;;4963360;28;20050;-70
2022/05/30 06:35:41;;;;;;;15.57;4.78;;;;;;;;;;4964628;28;20061;-70
2022/05/30 06:38:09;;;;;;;14.85;4.88;;;;;;;;;;4967471;28;20076;-70
2022/05/30 06:41:21;;;;;;;18.33;4.90;;;;;;;;;;4965884;28;20137;-73
2022/05/30 06:43:47;;;;;;;20.58;5.07;;;;;;;;;;4964641;28;20058;-71
2022/05/30 06:46:15;;;;;;;17.92;4.88;;;;;;;;;;4967620;28;20504;-71
2022/05/30 06:48:41;;;;;;;13.43;4.63;;;;;;;;;;4966766;28;20464;-73
2022/05/30 06:51:10;;;;;;;15.20;4.72;;;;;;;;;;4966119;28;20055;-70
2022/05/30 06:53:37;;;;;;;15.68;4.60;;;;;;;;;;4967576;28;20097;-75
2022/05/30 06:56:14;;;;;;;14.85;5.22;;;;;;;;;;4966723;28;20050;-71
2022/05/30 06:58:44;;;;;;;12.93;5.20;;;;;;;;;;4967846;28;20165;-71
2022/05/30 07:01:09;;;;;;;17.60;5.03;;;;;;;;;;4967153;28;20058;-73
2022/05/30 07:03:36;;;;;;;16.20;5.18;;;;;;;;;;4965637;28;20065;-70
2022/05/30 07:06:07;;;;;;;16.92;4.70;;;;;;;;;;4963643;28;20133;-70
2022/05/30 07:08:33;;;;;;;13.63;4.53;;;;;;;;;;4967289;28;20166;-71
2022/05/30 07:11:01;;;;;;;17.25;4.57;;;;;;;;;;4961066;28;20514;-72
2022/05/30 07:13:28;;;;;;;16.98;4.30;;;;;;;;;;4966607;28;20061;-68
2022/05/30 07:15:55;;;;;;;23.02;5.22;;;;;;;;;;4964705;28;20497;-69
2022/05/30 07:18:21;;;;;;;13.15;4.30;;;;;;;;;;4960259;28;20050;-70
2022/05/30 07:20:58;;;;;;;12.45;4.40;;;;;;;;;;4964391;28;20039;-69
2022/05/30 07:23:24;;;;;;;12.75;4.75;;;;;;;;;;4961764;28;20460;-72
2022/05/30 07:25:50;;;;;;;21.50;5.25;;;;;;;;;;4963547;28;20059;-69
2022/05/30 07:28:17;;;;;;;13.18;4.65;;;;;;;;;;4963892;28;20586;-71
2022/05/30 07:30:42;;;;;;;12.85;3.83;;;;;;;;;;4961172;28;20046;-72
2022/05/30 07:33:08;;;;;;;15.57;4.20;;;;;;;;;;4960636;28;20128;-70
2022/05/30 07:35:35;;;;;;;13.40;4.18;;;;;;;;;;4963946;28;20066;-70
2022/05/30 07:38:01;;;;;;;16.42;4.25;;;;;;;;;;4967411;28;20063;-70
2022/05/30 07:40:27;;;;;;;12.13;4.38;;;;;;;;;;4965693;28;20504;-70
2022/05/30 07:42:53;;;;;;;14.43;4.07;;;;;;;;;;4967371;28;20042;-69
2022/05/30 07:45:19;;;;;;;11.85;4.10;;;;;;;;;;4965845;28;20516;-69
2022/05/30 07:47:45;;;;;;;14.45;3.95;;;;;;;;;;4967174;28;20042;-69
2022/05/30 07:50:11;;;;;;;17.10;4.38;;;;;;;;;;4966164;28;20061;-72
2022/05/30 07:52:37;;;;;;;14.88;4.35;;;;;;;;;;4965706;28;20059;-68
2022/05/30 07:55:03;;;;;;;12.00;4.22;;;;;;;;;;4965556;28;21316;-71
2022/05/30 08:00:15;;;;;;;12.82;4.38;;;;;;;;;;4965164;28;20041;-71
2022/05/30 08:02:41;;;;;;;12.65;4.05;;;;;;;;;;4966586;28;20050;-70
2022/05/30 08:05:09;;;;;;;10.73;3.83;;;;;;;;;;4966993;28;20054;-69
2022/05/30 08:07:35;;;;;;;9.88;4.07;;;;;;;;;;4964127;28;20501;-68
2022/05/30 08:10:03;;;;;;;17.27;4.38;;;;;;;;;;4961071;28;20576;-66
2022/05/30 08:12:28;;;;;;;15.57;3.65;;;;;;;;;;4962163;28;20489;-73
2022/05/30 08:14:55;;;;;;;15.25;4.10;;;;;;;;;;4970094;28;20042;-72
2022/05/30 08:17:22;;;;;;;9.30;3.85;;;;;;;;;;4963898;28;20323;-72
2022/05/30 08:19:48;;;;;;;16.13;4.35;;;;;;;;;;4955114;28;20138;-72
2022/05/30 08:22:14;;;;;;;13.52;4.13;;;;;;;;;;4962773;28;20047;-74
2022/05/30 08:24:42;;;;;;;13.45;4.45;;;;;;;;;;4963550;28;20058;-71
2022/05/30 08:27:09;;;;;;;14.65;4.30;;;;;;;;;;4964623;28;20057;-75
2022/05/30 08:29:35;;;;;;;13.38;4.05;;;;;;;;;;4961782;28;20057;-70
2022/05/30 08:32:04;;;;;;;9.45;3.88;;;;;;;;;;4965083;28;20063;-73
2022/05/30 08:34:29;;;;;;;13.02;3.70;;;;;;;;;;4960427;28;21500;-69
2022/05/30 08:36:55;;;;;;;21.30;4.45;;;;;;;;;;4959094;28;20118;-69
2022/05/30 08:42:08;;;;;;;10.95;3.45;;;;;;;;;;4966169;28;20082;-67
2022/05/30 08:44:34;;;;;;;10.55;2.95;;;;;;;;;;4965636;28;20051;-68
2022/05/30 08:47:13;;;;;;;11.32;3.10;;;;;;;;;;4959527;28;20070;-70
2022/05/30 08:49:50;;;;;;;19.23;3.65;;;;;;;;;;4962894;28;20106;-74
2022/05/30 08:52:49;;;;;;;12.98;3.35;;;;;;;;;;4963335;28;20067;-71
2022/05/30 08:55:46;;;;;;;12.35;3.67;;;;;;;;;;4966603;28;20097;-71
2022/05/30 08:58:47;;;;;;;19.63;2.53;;;;;;;;;;4965627;28;20113;-73
2022/05/30 09:01:20;;;;;;;10.43;2.97;;;;;;;;;;4873900;29;20057;-71
2022/05/30 09:04:11;;;;;;;15.93;2.63;;;;;;;;;;4879366;29;20109;-68
2022/05/30 09:06:56;;;;;;;11.70;3.03;;;;;;;;;;4876096;29;20116;-72
2022/05/30 09:09:22;;;;;;;;;;;;;;;;;;4874022;29;20088;-70
2022/05/30 09:11:59;;;;;;;7.07;2.70;;;;;;;;;;4877353;29;19939;-73
2022/05/30 09:14:34;;;;;;;12.20;2.50;;;;;;;;;;4882491;29;20056;-71
2022/05/30 09:17:03;;;;;;;12.43;2.88;;;;;;;;;;4874264;29;20135;-68
2022/05/30 09:19:30;;;;;;;12.23;2.47;;;;;;;;;;4877940;29;20049;-67
2022/05/30 09:22:01;;;;;;;9.18;2.70;;;;;;;;;;4871205;29;20732;-70
2022/05/30 09:24:32;;;;;;;8.80;2.45;;;;;;;;;;4876330;29;20630;-76
2022/05/30 09:27:00;;;;;;;9.20;2.97;;;;;;;;;;4879825;29;20095;-76
2022/05/30 09:29:52;;;;;;;4.97;2.45;;;;;;;;;;4878295;29;20482;-78
2022/05/30 09:32:36;;;;;;;9.73;2.78;;;;;;;;;;4880839;29;20061;-75
2022/05/30 09:35:22;;;;;;;10.75;2.60;;;;;;;;;;4878257;29;20059;-78
2022/05/30 09:38:05;;;;;;;14.63;2.70;;;;;;;;;;4926410;28;20055;-77
2022/05/30 09:40:42;;;;;;;12.50;2.70;;;;;;;;;;4958545;28;20070;-73
2022/05/30 09:43:21;;;;;;;11.68;2.90;;;;;;;;;;4964912;28;20569;-73
2022/05/30 09:45:47;;;;;;;6.82;2.55;;;;;;;;;;4962546;28;20122;-74
2022/05/30 09:48:18;;;;;;;7.50;2.42;;;;;;;;;;4963518;28;20055;-75
2022/05/30 09:50:50;;;;;;;8.18;2.58;;;;;;;;;;4960196;28;20186;-70
2022/05/30 09:53:41;;;;;;;8.60;2.47;;;;;;;;;;4966121;28;20046;-75
2022/05/30 09:56:08;;;;;;;5.55;2.50;;;;;;;;;;4959415;28;21434;-75
2022/05/30 09:58:44;;;;;;;11.07;2.72;;;;;;;;;;4960644;28;20532;-71
2022/05/30 10:01:11;;;;;;;12.02;2.83;;;;;;;;;;4959313;28;20046;-73
2022/05/30 10:03:41;;;;;;;10.23;2.90;;;;;;;;;;4958048;28;20663;-72
2022/05/30 10:06:14;;;;;;;10.52;2.72;;;;;;;;;;4965420;28;20058;-71
2022/05/30 10:08:41;;;;;;;11.45;2.58;;;;;;;;;;4968187;28;20038;-72
2022/05/30 10:11:07;;;;;;;8.27;2.20;;;;;;;;;;4973060;28;20145;-74
2022/05/30 10:13:39;;;;;;;11.07;2.78;;;;;;;;;;4969114;28;20046;-71
2022/05/30 10:16:14;;;;;;;6.53;2.50;;;;;;;;;;4965812;28;20057;-73
2022/05/30 10:19:09;;;;;;;8.65;2.80;;;;;;;;;;4971651;28;20050;-74
2022/05/30 10:28:14;;;;;;;15.27;3.08;;;;;;;;;;4975244;28;20047;-74
2022/05/30 10:30:50;;;;;;;14.05;3.47;;;;;;;;;;4972744;28;20516;-71
2022/05/30 10:33:45;;;;;;;12.65;2.72;;;;;;;;;;4972213;28;20049;-76
2022/05/30 10:36:29;;;;;;;12.25;2.90;;;;;;;;;;4969626;28;20579;-76
2022/05/30 10:39:07;;;;;;;9.00;2.45;;;;;;;;;;4964771;28;20055;-74
2022/05/30 10:41:50;;;;;;;10.23;3.10;;;;;;;;;;4965742;28;20532;-74
2022/05/30 10:44:21;;;;;;;18.75;3.90;;;;;;;;;;4968529;28;20446;-75
2022/05/30 10:46:59;;;;;;;15.90;3.50;;;;;;;;;;4965011;28;20134;-72
2022/05/30 10:49:31;;;;;;;28.25;4.30;;;;;;;;;;4961038;28;20086;-75
2022/05/30 10:52:02;;;;;;;11.73;3.30;;;;;;;;;;4968331;28;20043;-72
2022/05/30 10:54:37;;;;;;;12.90;2.92;;;;;;;;;;4970051;28;20057;-71
2022/05/30 10:57:15;;;;;;;15.07;2.90;;;;;;;;;;4970085;28;20184;-71
2022/05/30 10:59:47;;;;;;;14.80;3.25;;;;;;;;;;4968570;28;20485;-70
2022/05/30 11:02:19;;;;;;;6.05;2.38;;;;;;;;;;4967433;28;20102;-72
2022/05/30 11:05:01;;;;;;;13.70;3.38;;;;;;;;;;4971571;28;20125;-72
2022/05/30 11:07:39;;;;;;;10.15;3.63;;;;;;;;;;4966134;28;20047;-74
2022/05/30 11:10:17;;;;;;;12.63;3.15;;;;;;;;;;4968128;28;20055;-72
2022/05/30 11:12:49;;;;;;;9.77;3.10;;;;;;;;;;4970730;28;20104;-71
2022/05/30 11:15:27;;;;;;;9.18;2.67;;;;;;;;;;4969152;28;20525;-72
2022/05/30 11:18:23;;;;;;;8.13;2.55;;;;;;;;;;4963400;28;20053;-70
2022/05/30 11:21:03;;;;;;;8.00;2.88;;;;;;;;;;4959926;28;20452;-70
2022/05/30 11:23:29;;;;;;;16.27;3.13;;;;;;;;;;4957996;28;20113;-69
2022/05/30 11:26:13;;;;;;;12.10;2.70;;;;;;;;;;4963236;28;20061;-69
2022/05/30 11:29:08;;;;;;;9.93;3.10;;;;;;;;;;4968759;28;20546;-72
2022/05/30 11:32:02;;;;;;;9.85;3.00;;;;;;;;;;4882164;29;20053;-70
2022/05/30 11:34:33;;;;;;;14.65;3.00;;;;;;;;;;4884248;29;20060;-71
2022/05/30 11:37:22;;;;;;;9.07;3.05;;;;;;;;;;4885726;29;20506;-70
2022/05/30 11:39:48;;;;;;;9.15;2.75;;;;;;;;;;4877400;29;20833;-69
2022/05/30 11:42:52;;;;;;;13.95;2.83;;;;;;;;;;4885282;29;20094;-70
2022/05/30 11:45:29;;;;;;;12.40;2.78;;;;;;;;;;4886558;29;20452;-70
2022/05/30 11:48:13;;;;;;;9.27;2.40;;;;;;;;;;4883644;29;20048;-72
2022/05/30 11:51:19;;;;;;;13.93;2.67;;;;;;;;;;4885802;29;20447;-70
2022/05/30 11:53:50;;;;;;;9.50;2.60;;;;;;;;;;4836803;29;20070;-70
2022/05/30 11:56:19;;;;;;;11.30;2.67;;;;;;;;;;4841473;29;20065;-73
2022/05/30 11:59:18;;;;;;;10.05;2.92;;;;;;;;;;4839620;29;20062;-74
2022/05/30 12:01:50;;;;;;;8.68;2.47;;;;;;;;;;4839161;29;20485;-72
2022/05/30 12:04:44;;;;;;;9.43;2.42;;;;;;;;;;4837974;29;20099;-72
2022/05/30 12:07:22;;;;;;;14.60;3.30;;;;;;;;;;4840337;29;20596;-70
2022/05/30 12:09:57;;;;;;;9.13;3.05;;;;;;;;;;4889969;29;20049;-69
2022/05/30 12:12:48;;;;;;;11.45;2.47;;;;;;;;;;4895139;29;20064;-70
2022/05/30 12:15:16;;;;;;;12.40;3.00;;;;;;;;;;4893278;29;20055;-71
2022/05/30 12:24:00;;;;;;;13.35;3.05;;;;;;;;;;4885649;29;20415;-71
2022/05/30 12:26:48;;;;;;;11.57;2.90;;;;;;;;;;4894272;29;20177;-74
2022/05/30 12:29:39;;;;;;;16.85;2.95;;;;;;;;;;4901283;28;20052;-71
2022/05/30 12:32:36;;;;;;;9.68;2.78;;;;;;;;;;4963736;28;20082;-70
2022/05/30 12:35:15;;;;;;;11.85;2.50;;;;;;;;;;4962919;28;20590;-72
2022/05/30 12:37:47;;;;;;;5.47;2.17;;;;;;;;;;4965480;28;20050;-71
2022/05/30 12:40:19;;;;;;;8.93;2.60;;;;;;;;;;4962912;28;20073;-71
2022/05/30 12:42:45;;;;;;;6.97;2.50;;;;;;;;;;4964359;28;20050;-73
2022/05/30 12:45:40;;;;;;;8.45;2.67;;;;;;;;;;4963827;28;20051;-71
2022/05/30 12:48:44;;;;;;;10.07;2.45;;;;;;;;;;4966885;28;20543;-74
2022/05/30 12:51:38;;;;;;;10.87;2.70;;;;;;;;;;4951711;28;20093;-71
2022/05/30 12:54:07;;;;;;;;;;;;;;;;;;4962552;28;20055;-70
2022/05/30 12:56:39;;;;;;;11.30;2.75;;;;;;;;;;4960359;28;19930;-70
2022/05/30 12:59:05;;;;;;;10.50;2.53;;;;;;;;;;4956433;28;21263;-72
2022/05/30 13:01:43;;;;;;;7.65;2.35;;;;;;;;;;4957300;28;20053;-70
2022/05/30 13:04:15;;;;;;;7.95;2.50;;;;;;;;;;4960898;28;20116;-72
2022/05/30 13:06:51;;;;;;;8.10;2.20;;;;;;;;;;4960518;28;21020;-72
2022/05/30 13:09:34;;;;;;;12.60;2.42;;;;;;;;;;4963103;28;20484;-73
2022/05/30 13:12:00;;;;;;;10.77;2.50;;;;;;;;;;4960410;28;20158;-71
2022/05/30 13:14:41;;;;;;;11.57;2.47;;;;;;;;;;4959875;28;20157;-71
2022/05/30 13:17:18;;;;;;;10.90;2.40;;;;;;;;;;4961600;28;20058;-70
2022/05/30 13:20:18;;;;;;;10.25;2.00;;;;;;;;;;4956717;28;20516;-70
2022/05/30 13:22:46;;;;;;;7.30;2.00;;;;;;;;;;4953782;28;20058;-71
2022/05/30 13:25:19;;;;;;;9.40;2.22;;;;;;;;;;4962803;28;20137;-72
2022/05/30 13:27:46;;;;;;;13.13;2.20;;;;;;;;;;4966179;28;20953;-69
2022/05/30 13:30:23;;;;;;;5.63;2.22;;;;;;;;;;4960545;28;20062;-71
2022/05/30 13:32:50;;;;;;;6.25;1.98;;;;;;;;;;4960035;28;20447;-70
2022/05/30 13:35:17;;;;;;;9.48;2.17;;;;;;;;;;4964298;28;20104;-70
2022/05/30 13:37:51;;;;;;;8.65;1.98;;;;;;;;;;4963523;28;20109;-73
2022/05/30 13:40:25;;;;;;;9.98;2.10;;;;;;;;;;4960801;28;20065;-71
2022/05/30 13:43:00;;;;;;;7.25;1.88;;;;;;;;;;4965602;28;20127;-70
2022/05/30 13:45:30;;;;;;;8.32;1.92;;;;;;;;;;4961238;28;20054;-72
2022/05/30 13:48:08;;;;;;;9.43;2.20;;;;;;;;;;4960292;28;20126;-73
2022/05/30 13:50:48;;;;;;;6.85;2.05;;;;;;;;;;4960714;28;20145;-72
2022/05/30 13:53:21;;;;;;;8.73;2.35;;;;;;;;;;4964215;28;20042;-70
2022/05/30 13:55:55;;;;;;;6.45;1.98;;;;;;;;;;4961917;28;20138;-72
2022/05/30 13:58:22;;;;;;;10.32;2.17;;;;;;;;;;4962419;28;20058;-71
2022/05/30 14:00:49;;;;;;;11.38;2.33;;;;;;;;;;4960226;28;20063;-71
2022/05/30 14:03:16;;;;;;;7.85;2.28;;;;;;;;;;4957614;28;20085;-71
2022/05/30 14:05:45;;;;;;;11.05;2.10;;;;;;;;;;4957102;28;20113;-71
2022/05/30 14:08:16;;;;;;;10.98;2.47;;;;;;;;;;4960701;28;20722;-69
2022/05/30 14:10:44;;;;;;;8.73;2.65;;;;;;;;;;4960782;28;20063;-71
2022/05/30 14:13:36;;;;;;;9.55;2.80;;;;;;;;;;4959234;28;20055;-71
2022/05/30 14:16:06;;;;;;;12.70;3.78;;;;;;;;;;4956756;28;20464;-71
2022/05/30 14:18:47;;;;;;;9.75;3.35;;;;;;;;;;4951545;28;20058;-71
2022/05/30 14:21:24;;;;;;;11.82;2.90;;;;;;;;;;4958913;28;20150;-69
2022/05/30 14:23:52;;;;;;;14.15;3.42;;;;;;;;;;4959606;28;20086;-71
2022/05/30 14:26:31;;;;;;;9.18;3.00;;;;;;;;;;4963308;28;21036;-70
2022/05/30 14:29:05;;;;;;;8.63;2.50;;;;;;;;;;4958971;28;20043;-70
2022/05/30 14:31:34;;;;;;;14.15;3.10;;;;;;;;;;4957385;28;20130;-70
2022/05/30 14:34:15;;;;;;;13.63;2.72;;;;;;;;;;4959130;28;20133;-70
2022/05/30 14:36:49;;;;;;;9.48;2.90;;;;;;;;;;4960970;28;20050;-71
2022/05/30 14:39:22;;;;;;;11.88;2.60;;;;;;;;;;4962824;28;20105;-69
2022/05/30 14:41:59;;;;;;;9.13;2.63;;;;;;;;;;4960752;28;20062;-71
2022/05/30 14:44:40;;;;;;;10.25;2.50;;;;;;;;;;4961262;28;20046;-70
2022/05/30 14:47:11;;;;;;;10.80;2.13;;;;;;;;;;4961704;28;20132;-69
2022/05/30 14:49:57;;;;;;;11.93;2.20;;;;;;;;;;4958145;28;20054;-73
2022/05/30 14:52:30;;;;;;;17.58;2.70;;;;;;;;;;4963126;28;20077;-72
2022/05/30 14:54:56;;;;;;;8.75;2.15;;;;;;;;;;4961146;28;20051;-70
2022/05/30 14:57:27;;;;;;;12.32;2.72;;;;;;;;;;4967560;28;20412;-73
2022/05/30 14:59:54;;;;;;;11.52;2.25;;;;;;;;;;4967384;28;20497;-71
2022/05/30 15:05:08;;;;;;;8.00;2.28;;;;;;;;;;4964567;28;20516;-68
2022/05/30 15:07:39;;;;;;;6.32;2.10;;;;;;;;;;4963499;28;20407;-72
2022/05/30 15:10:05;;;;;;;12.15;2.35;;;;;;;;;;4960196;28;20686;-72
2022/05/30 15:12:31;;;;;;;14.77;2.38;;;;;;;;;;4965131;28;20055;-72
2022/05/30 15:14:57;;;;;;;9.55;2.70;;;;;;;;;;4966679;28;20045;-69
2022/05/30 15:17:23;;;;;;;9.63;2.40;;;;;;;;;;4964886;28;20447;-70
2022/05/30 15:19:53;;;;;;;8.20;2.17;;;;;;;;;;4964873;28;20046;-73
2022/05/30 15:22:21;;;;;;;11.82;2.33;;;;;;;;;;4962730;28;20055;-70
2022/05/30 15:24:55;;;;;;;10.00;2.40;;;;;;;;;;4961666;28;20061;-71
2022/05/30 15:27:22;;;;;;;11.18;2.55;;;;;;;;;;4966754;28;20097;-70